Time;durP1;ratioP1;P1;durP2;ratioP2;P2;SDS_P1;SDS_P2;PMS_P1;PMS_P2;Temp;Humidity;BMP_temperature;BMP_pressure;BME280_temperature;BME280_humidity;BME280_pressure;Samples;Min_cycle;Max_cycle;Signal;HPM_P1;HPM_P2
2022/04/30 00:00:04;;;;;;;11.98;10.77;;;;;;;;;;10370822;28;20042;-75
2022/04/30 00:05:14;;;;;;;12.52;11.30;;;;;;;;;;10366156;28;20050;-76
2022/04/30 00:10:14;;;;;;;11.70;10.52;;;;;;;;;;10330620;28;20637;-77
2022/04/30 00:15:15;;;;;;;15.77;11.67;;;;;;;;;;10369480;28;20210;-75
2022/04/30 00:20:15;;;;;;;13.33;12.03;;;;;;;;;;10385057;28;20053;-76
2022/04/30 00:25:18;;;;;;;14.00;12.60;;;;;;;;;;10387452;28;20364;-75
2022/04/30 00:30:19;;;;;;;12.82;11.52;;;;;;;;;;10368587;28;20120;-75
2022/04/30 00:35:21;;;;;;;13.10;11.23;;;;;;;;;;10357784;28;20058;-76
2022/04/30 00:40:22;;;;;;;14.52;12.75;;;;;;;;;;10347197;28;20045;-75
2022/04/30 00:45:22;;;;;;;14.57;12.93;;;;;;;;;;10365926;28;20125;-76
2022/04/30 00:50:26;;;;;;;12.88;11.05;;;;;;;;;;10330926;28;20050;-77
2022/04/30 00:55:29;;;;;;;13.18;11.77;;;;;;;;;;10366816;28;20058;-76
2022/04/30 01:00:29;;;;;;;16.30;12.77;;;;;;;;;;10368779;28;20120;-75
2022/04/30 01:05:55;;;;;;;14.10;12.60;;;;;;;;;;10374880;28;20052;-75
2022/04/30 01:11:03;;;;;;;13.63;12.23;;;;;;;;;;10367496;28;20069;-77
2022/04/30 01:16:05;;;;;;;14.52;13.02;;;;;;;;;;10365480;28;20089;-78
2022/04/30 01:21:12;;;;;;;15.48;12.65;;;;;;;;;;10364710;28;20189;-76
2022/04/30 01:26:17;;;;;;;14.23;12.73;;;;;;;;;;10367561;28;20045;-77
2022/04/30 01:42:03;;;;;;;12.98;10.60;;;;;;;;;;10367851;28;20054;-75
2022/04/30 01:47:03;;;;;;;15.88;13.90;;;;;;;;;;10345736;28;20054;-76
2022/04/30 01:52:09;;;;;;;14.77;12.07;;;;;;;;;;10350878;28;20070;-76
2022/04/30 01:57:10;;;;;;;13.20;11.88;;;;;;;;;;10363527;28;20050;-75
2022/04/30 02:02:10;;;;;;;14.13;12.57;;;;;;;;;;10385108;28;20042;-77
2022/04/30 02:07:12;;;;;;;16.00;12.90;;;;;;;;;;10358007;28;20136;-76
2022/04/30 02:12:13;;;;;;;13.52;11.77;;;;;;;;;;10361382;28;20105;-75
2022/04/30 02:17:15;;;;;;;12.07;10.93;;;;;;;;;;10354900;28;20050;-75
2022/04/30 02:22:17;;;;;;;14.35;11.85;;;;;;;;;;10356878;28;20277;-76
2022/04/30 02:27:18;;;;;;;13.75;10.70;;;;;;;;;;10378553;28;20049;-76
2022/04/30 02:32:18;;;;;;;12.77;11.47;;;;;;;;;;10349126;28;20060;-77
2022/04/30 02:37:21;;;;;;;12.25;10.95;;;;;;;;;;10363210;28;20076;-76
2022/04/30 02:42:21;;;;;;;11.35;10.25;;;;;;;;;;10362338;28;20045;-75
2022/04/30 02:47:22;;;;;;;13.10;11.67;;;;;;;;;;10361250;28;20046;-75
2022/04/30 02:52:24;;;;;;;13.25;11.68;;;;;;;;;;10343828;28;20281;-76
2022/04/30 02:57:24;;;;;;;12.93;11.63;;;;;;;;;;10328876;28;20295;-75
2022/04/30 03:02:25;;;;;;;14.33;12.63;;;;;;;;;;10342808;28;20046;-76
2022/04/30 03:07:28;;;;;;;13.43;12.02;;;;;;;;;;10345792;28;20276;-76
2022/04/30 03:12:28;;;;;;;15.75;13.40;;;;;;;;;;10378886;28;20412;-77
2022/04/30 03:22:48;;;;;;;15.52;13.82;;;;;;;;;;10354283;28;20042;-76
2022/04/30 03:27:49;;;;;;;13.75;12.27;;;;;;;;;;10339414;28;20442;-76
2022/04/30 03:32:49;;;;;;;14.68;12.43;;;;;;;;;;10356729;28;20042;-77
2022/04/30 03:37:50;;;;;;;13.40;11.75;;;;;;;;;;10340295;28;20517;-78
2022/04/30 03:42:50;;;;;;;14.98;12.93;;;;;;;;;;10387766;28;20069;-77
2022/04/30 03:47:50;;;;;;;14.35;12.85;;;;;;;;;;10339632;28;20361;-77
2022/04/30 03:52:51;;;;;;;14.38;12.80;;;;;;;;;;10341820;28;20489;-74
2022/04/30 03:57:51;;;;;;;17.20;13.70;;;;;;;;;;10358529;28;20049;-75
2022/04/30 04:02:53;;;;;;;18.58;13.43;;;;;;;;;;10340107;28;20042;-76
2022/04/30 04:07:56;;;;;;;16.95;13.10;;;;;;;;;;10352436;28;20115;-75
2022/04/30 04:17:37;;;;;;;14.73;12.87;;;;;;;;;;10358549;28;20140;-74
2022/04/30 04:18:17;;;;;;;14.45;12.68;;;;;;;;;;10358872;28;20058;-75
2022/04/30 04:23:18;;;;;;;17.77;13.27;;;;;;;;;;10355919;28;20038;-77
2022/04/30 04:28:18;;;;;;;16.70;13.83;;;;;;;;;;10369222;28;20292;-75
2022/04/30 04:33:19;;;;;;;15.68;12.45;;;;;;;;;;10357226;28;20297;-77
2022/04/30 04:38:19;;;;;;;15.02;12.05;;;;;;;;;;10361055;28;20084;-76
2022/04/30 04:43:20;;;;;;;14.30;12.70;;;;;;;;;;10367412;28;20054;-76
2022/04/30 04:48:21;;;;;;;11.47;10.27;;;;;;;;;;10362840;28;20623;-75
2022/04/30 04:53:21;;;;;;;18.63;14.67;;;;;;;;;;10345191;28;20300;-76
2022/04/30 04:58:22;;;;;;;17.13;13.93;;;;;;;;;;10362665;28;20359;-76
2022/04/30 05:03:22;;;;;;;13.43;12.03;;;;;;;;;;10353828;28;20608;-75
2022/04/30 05:08:23;;;;;;;11.63;10.50;;;;;;;;;;10361588;28;20133;-76
2022/04/30 05:13:23;;;;;;;11.85;10.40;;;;;;;;;;10378928;28;20042;-75
2022/04/30 05:18:26;;;;;;;11.32;8.93;;;;;;;;;;10394244;28;20042;-76
2022/04/30 05:23:27;;;;;;;12.95;10.70;;;;;;;;;;10356809;28;20053;-77
2022/04/30 05:28:27;;;;;;;10.40;9.27;;;;;;;;;;10347987;28;20041;-76
2022/04/30 05:33:31;;;;;;;17.17;13.47;;;;;;;;;;10346645;28;20344;-76
2022/04/30 05:38:32;;;;;;;14.95;12.57;;;;;;;;;;10342961;28;20760;-76
2022/04/30 05:43:32;;;;;;;14.43;11.40;;;;;;;;;;10362368;28;20045;-76
2022/04/30 05:48:33;;;;;;;12.73;11.43;;;;;;;;;;10377498;28;20481;-76
2022/04/30 05:53:33;;;;;;;12.53;10.57;;;;;;;;;;10363179;28;20046;-75
2022/04/30 05:58:34;;;;;;;10.05;9.02;;;;;;;;;;10359306;28;20136;-77
2022/04/30 06:03:34;;;;;;;11.45;9.40;;;;;;;;;;10367540;28;20042;-76
2022/04/30 06:08:34;;;;;;;10.30;9.30;;;;;;;;;;10371139;28;20050;-76
2022/04/30 06:13:35;;;;;;;10.63;9.35;;;;;;;;;;10375539;28;20053;-76
2022/04/30 06:18:36;;;;;;;13.67;10.67;;;;;;;;;;10349329;28;20244;-76
2022/04/30 06:23:37;;;;;;;11.98;10.35;;;;;;;;;;10365234;28;20269;-76
2022/04/30 06:28:37;;;;;;;13.20;10.77;;;;;;;;;;10357936;28;20060;-76
2022/04/30 06:33:38;;;;;;;13.23;10.73;;;;;;;;;;10383823;28;20049;-76
2022/04/30 06:38:38;;;;;;;12.18;10.88;;;;;;;;;;10360817;28;20054;-77
2022/04/30 06:43:40;;;;;;;11.05;9.95;;;;;;;;;;10366400;28;20049;-79
2022/04/30 06:48:40;;;;;;;11.20;9.40;;;;;;;;;;10367980;28;20120;-76
2022/04/30 06:59:00;;;;;;;10.95;9.50;;;;;;;;;;10365253;28;20105;-76
2022/04/30 07:04:04;;;;;;;10.07;8.75;;;;;;;;;;10364200;28;20138;-75
2022/04/30 07:09:05;;;;;;;11.25;9.75;;;;;;;;;;10363131;28;20089;-76
2022/04/30 07:14:06;;;;;;;11.35;9.43;;;;;;;;;;10344061;28;20069;-77
2022/04/30 07:19:07;;;;;;;9.07;8.18;;;;;;;;;;10392001;28;20050;-79
2022/04/30 07:24:11;;;;;;;10.80;9.32;;;;;;;;;;10351944;28;20042;-77
2022/04/30 07:29:12;;;;;;;10.87;9.73;;;;;;;;;;10371393;28;20122;-78
2022/04/30 07:34:12;;;;;;;9.52;8.52;;;;;;;;;;10337139;28;20038;-79
2022/04/30 07:39:13;;;;;;;11.88;9.82;;;;;;;;;;10378634;28;20057;-78
2022/04/30 07:44:13;;;;;;;11.98;9.23;;;;;;;;;;10370251;28;20101;-81
2022/04/30 07:49:15;;;;;;;12.32;8.63;;;;;;;;;;10377384;28;20054;-77
2022/04/30 07:54:15;;;;;;;8.47;7.67;;;;;;;;;;10358413;28;20093;-76
2022/04/30 07:59:15;;;;;;;9.20;8.27;;;;;;;;;;10341314;28;20058;-77
2022/04/30 08:04:16;;;;;;;8.48;7.65;;;;;;;;;;10362506;28;20540;-75
2022/04/30 08:09:18;;;;;;;9.98;8.20;;;;;;;;;;10339625;28;20142;-77
2022/04/30 08:14:19;;;;;;;9.02;8.13;;;;;;;;;;10369612;28;20050;-77
2022/04/30 08:19:19;;;;;;;9.20;7.65;;;;;;;;;;10341656;28;20065;-78
2022/04/30 08:24:20;;;;;;;8.98;8.07;;;;;;;;;;10338664;28;20062;-77
2022/04/30 08:29:20;;;;;;;9.25;8.35;;;;;;;;;;10380133;28;20512;-77
2022/04/30 08:34:21;;;;;;;10.67;8.60;;;;;;;;;;10377895;28;20102;-79
2022/04/30 08:39:21;;;;;;;8.70;7.80;;;;;;;;;;10388882;28;20058;-77
2022/04/30 08:44:23;;;;;;;9.95;8.35;;;;;;;;;;10379931;28;20052;-78
2022/04/30 08:49:24;;;;;;;13.07;8.65;;;;;;;;;;10366248;28;20153;-76
2022/04/30 08:54:24;;;;;;;10.05;8.23;;;;;;;;;;10378203;28;20148;-77
2022/04/30 08:59:25;;;;;;;8.38;6.88;;;;;;;;;;10361064;28;20185;-78
2022/04/30 09:04:26;;;;;;;11.95;7.88;;;;;;;;;;10361662;28;20077;-81
2022/04/30 09:09:30;;;;;;;8.52;7.50;;;;;;;;;;10366893;28;20405;-77
2022/04/30 09:14:34;;;;;;;8.77;7.53;;;;;;;;;;10375770;28;20046;-77
2022/04/30 09:19:46;;;;;;;11.15;7.88;;;;;;;;;;10325368;28;20054;-75
2022/04/30 09:24:50;;;;;;;8.38;7.32;;;;;;;;;;10378976;28;20452;-74
2022/04/30 09:29:51;;;;;;;9.45;8.07;;;;;;;;;;10369115;28;20045;-77
2022/04/30 09:40:14;;;;;;;10.27;7.63;;;;;;;;;;10326937;28;20054;-77
2022/04/30 09:45:24;;;;;;;8.27;7.47;;;;;;;;;;10356671;28;20073;-76
2022/04/30 09:55:49;;;;;;;8.52;7.00;;;;;;;;;;10378399;28;20085;-76
2022/04/30 10:00:57;;;;;;;10.25;7.45;;;;;;;;;;10350172;28;20103;-79
2022/04/30 10:06:02;;;;;;;8.48;7.10;;;;;;;;;;10358927;28;20049;-78
2022/04/30 10:11:06;;;;;;;8.88;7.93;;;;;;;;;;10343934;28;20096;-76
2022/04/30 10:16:11;;;;;;;7.30;6.60;;;;;;;;;;10326344;28;20465;-79
2022/04/30 10:21:19;;;;;;;11.65;8.52;;;;;;;;;;10349599;28;20046;-78
2022/04/30 10:26:20;;;;;;;8.40;7.00;;;;;;;;;;10353274;28;20057;-78
2022/04/30 10:31:21;;;;;;;11.38;8.02;;;;;;;;;;10367918;28;20576;-78
2022/04/30 10:36:22;;;;;;;13.27;8.87;;;;;;;;;;10377542;28;20068;-76
2022/04/30 10:41:22;;;;;;;10.80;8.38;;;;;;;;;;10384503;28;20076;-79
2022/04/30 10:46:25;;;;;;;10.98;8.05;;;;;;;;;;10380905;28;20093;-77
2022/04/30 10:51:36;;;;;;;12.43;9.23;;;;;;;;;;10390841;28;20363;-79
2022/04/30 10:56:38;;;;;;;10.52;9.07;;;;;;;;;;10396611;28;20050;-81
2022/04/30 11:01:47;;;;;;;9.77;7.60;;;;;;;;;;10370118;28;20037;-81
2022/04/30 11:06:51;;;;;;;18.27;8.90;;;;;;;;;;10386088;28;20048;-79
2022/04/30 11:11:52;;;;;;;10.30;7.25;;;;;;;;;;10382659;28;20165;-77
2022/04/30 11:16:53;;;;;;;9.63;8.23;;;;;;;;;;10380344;28;20921;-76
2022/04/30 11:21:54;;;;;;;9.30;8.30;;;;;;;;;;10343137;28;20147;-78
2022/04/30 11:26:58;;;;;;;9.80;7.95;;;;;;;;;;10375624;28;20046;-77
2022/04/30 11:31:59;;;;;;;8.93;7.68;;;;;;;;;;10370941;28;20723;-76
2022/04/30 11:37:01;;;;;;;9.43;8.23;;;;;;;;;;10342213;28;20060;-77
2022/04/30 11:42:01;;;;;;;9.27;7.95;;;;;;;;;;10350246;28;20042;-77
2022/04/30 11:47:05;;;;;;;8.33;7.50;;;;;;;;;;10369959;28;20058;-78
2022/04/30 11:52:10;;;;;;;8.90;8.00;;;;;;;;;;10382460;28;20257;-78
2022/04/30 11:57:13;;;;;;;9.43;8.02;;;;;;;;;;10386416;28;20077;-78
2022/04/30 12:02:15;;;;;;;10.05;7.70;;;;;;;;;;10393305;28;20034;-78
2022/04/30 12:07:16;;;;;;;9.48;7.70;;;;;;;;;;10337157;28;20045;-79
2022/04/30 12:12:21;;;;;;;8.73;7.80;;;;;;;;;;10370474;28;20044;-77
2022/04/30 12:17:28;;;;;;;9.15;7.70;;;;;;;;;;10338936;28;20405;-77
2022/04/30 12:27:53;;;;;;;8.05;7.25;;;;;;;;;;10376150;28;20504;-78
2022/04/30 12:33:01;;;;;;;8.57;7.07;;;;;;;;;;10346627;28;20049;-77
2022/04/30 12:38:01;;;;;;;7.50;6.03;;;;;;;;;;10370736;28;20077;-77
2022/04/30 12:43:02;;;;;;;6.73;5.77;;;;;;;;;;10352796;28;20088;-77
2022/04/30 12:48:04;;;;;;;7.13;6.38;;;;;;;;;;10387686;28;20553;-78
2022/04/30 12:53:11;;;;;;;7.65;6.85;;;;;;;;;;10341546;28;20821;-76
2022/04/30 12:58:17;;;;;;;7.38;6.65;;;;;;;;;;10377761;28;20078;-78
2022/04/30 13:03:17;;;;;;;7.90;7.10;;;;;;;;;;10371979;28;20056;-81
2022/04/30 13:08:18;;;;;;;7.57;6.77;;;;;;;;;;10352689;28;20056;-78
2022/04/30 13:13:34;;;;;;;8.03;7.23;;;;;;;;;;10385622;28;20285;-79
2022/04/30 13:18:35;;;;;;;7.03;6.43;;;;;;;;;;10348880;28;20076;-78
2022/04/30 13:23:36;;;;;;;8.13;6.70;;;;;;;;;;10369772;28;20056;-77
2022/04/30 13:28:38;;;;;;;6.63;6.03;;;;;;;;;;10384736;28;20592;-80
2022/04/30 13:33:40;;;;;;;8.13;6.45;;;;;;;;;;10393853;28;20034;-78
2022/04/30 13:38:42;;;;;;;7.45;6.65;;;;;;;;;;10362852;28;20116;-76
2022/04/30 13:43:42;;;;;;;7.40;6.70;;;;;;;;;;10381056;28;20127;-77
2022/04/30 13:48:42;;;;;;;8.87;7.87;;;;;;;;;;10372363;28;20072;-77
2022/04/30 13:53:44;;;;;;;9.10;8.20;;;;;;;;;;10367289;28;20045;-79
2022/04/30 13:58:45;;;;;;;10.23;9.23;;;;;;;;;;10348021;28;20065;-77
2022/04/30 14:03:45;;;;;;;11.10;8.53;;;;;;;;;;10357811;28;20131;-77
2022/04/30 14:08:46;;;;;;;9.57;8.68;;;;;;;;;;10366760;28;20040;-77
2022/04/30 14:19:05;;;;;;;9.65;8.65;;;;;;;;;;10352682;28;20132;-76
2022/04/30 14:24:06;;;;;;;10.35;9.35;;;;;;;;;;10373282;28;20118;-77
2022/04/30 14:29:11;;;;;;;11.63;9.32;;;;;;;;;;10368865;28;20128;-77
2022/04/30 14:34:13;;;;;;;9.48;8.48;;;;;;;;;;10351035;28;20042;-77
2022/04/30 14:39:13;;;;;;;8.15;7.35;;;;;;;;;;10345411;28;20061;-77
2022/04/30 14:44:16;;;;;;;11.67;9.47;;;;;;;;;;10350267;28;20042;-77
2022/04/30 14:49:17;;;;;;;10.93;9.75;;;;;;;;;;10355044;28;20323;-76
2022/04/30 14:54:17;;;;;;;12.03;9.87;;;;;;;;;;10357869;28;20049;-77
2022/04/30 14:59:18;;;;;;;14.05;11.82;;;;;;;;;;10351431;28;20472;-76
2022/04/30 15:04:19;;;;;;;15.20;13.70;;;;;;;;;;10366151;28;20160;-77
2022/04/30 15:09:19;;;;;;;14.00;12.63;;;;;;;;;;10365522;28;20289;-78
2022/04/30 15:14:20;;;;;;;11.25;10.13;;;;;;;;;;10353068;28;20508;-77
2022/04/30 15:19:20;;;;;;;9.63;8.63;;;;;;;;;;10351421;28;20062;-77
2022/04/30 15:24:22;;;;;;;10.40;9.35;;;;;;;;;;10347908;28;20281;-79
2022/04/30 15:29:27;;;;;;;8.85;8.05;;;;;;;;;;10332436;28;20050;-77
2022/04/30 15:34:28;;;;;;;11.52;8.85;;;;;;;;;;10358781;28;20133;-76
2022/04/30 15:39:28;;;;;;;9.32;8.50;;;;;;;;;;10366248;28;20058;-77
2022/04/30 15:44:28;;;;;;;7.73;6.97;;;;;;;;;;10375578;28;20128;-77
2022/04/30 15:54:49;;;;;;;6.75;5.85;;;;;;;;;;10384813;28;20276;-77
2022/04/30 15:59:51;;;;;;;6.47;5.10;;;;;;;;;;10353173;28;20050;-78
2022/04/30 16:04:51;;;;;;;5.75;5.18;;;;;;;;;;10373055;28;20054;-76
2022/04/30 16:09:52;;;;;;;7.97;5.45;;;;;;;;;;10363765;28;20054;-78
2022/04/30 16:14:53;;;;;;;6.25;5.65;;;;;;;;;;10337946;28;20136;-78
2022/04/30 16:19:53;;;;;;;5.93;5.37;;;;;;;;;;10349483;28;20058;-77
2022/04/30 16:24:54;;;;;;;6.18;5.60;;;;;;;;;;10331288;28;20050;-77
2022/04/30 16:29:56;;;;;;;6.20;5.60;;;;;;;;;;10353683;28;20061;-78
2022/04/30 16:34:57;;;;;;;5.95;5.43;;;;;;;;;;10360207;28;20045;-78
2022/04/30 16:39:57;;;;;;;7.22;6.53;;;;;;;;;;10354422;28;20094;-77
2022/04/30 16:44:59;;;;;;;6.78;6.18;;;;;;;;;;10366954;28;20041;-78
2022/04/30 16:49:59;;;;;;;7.18;6.50;;;;;;;;;;10365901;28;20054;-78
2022/04/30 17:00:19;;;;;;;8.20;7.00;;;;;;;;;;10348024;28;20177;-77
2022/04/30 17:05:21;;;;;;;8.90;7.68;;;;;;;;;;10358682;28;20050;-77
2022/04/30 17:10:22;;;;;;;8.38;7.40;;;;;;;;;;10371637;28;20061;-78
2022/04/30 17:15:24;;;;;;;9.32;8.43;;;;;;;;;;10344707;28;20052;-79
2022/04/30 17:20:28;;;;;;;7.80;6.95;;;;;;;;;;10354421;28;20058;-78
2022/04/30 17:25:31;;;;;;;8.30;6.78;;;;;;;;;;10348300;28;20042;-78
2022/04/30 17:37:57;;;;;;;8.13;7.32;;;;;;;;;;10360988;28;20133;-77
2022/04/30 17:41:11;;;;;;;8.98;6.85;;;;;;;;;;10376114;28;20038;-77
2022/04/30 17:46:12;;;;;;;8.10;7.37;;;;;;;;;;10341072;28;20069;-77
2022/04/30 17:51:14;;;;;;;8.82;7.50;;;;;;;;;;10349401;28;20343;-78
2022/04/30 17:56:18;;;;;;;7.73;6.93;;;;;;;;;;10335832;28;20091;-78
2022/04/30 18:01:18;;;;;;;;;;;;;;;;;;10352494;28;20273;-77
2022/04/30 18:06:19;;;;;;;8.23;7.00;;;;;;;;;;10322434;28;19921;-79
2022/04/30 18:11:20;;;;;;;8.20;6.82;;;;;;;;;;10375343;28;20113;-79
2022/04/30 18:16:21;;;;;;;9.77;7.50;;;;;;;;;;10375000;28;20160;-77
2022/04/30 18:21:22;;;;;;;8.00;7.30;;;;;;;;;;10354268;28;20065;-78
2022/04/30 18:26:22;;;;;;;8.77;7.33;;;;;;;;;;10355790;28;20042;-79
2022/04/30 18:31:22;;;;;;;9.03;7.97;;;;;;;;;;10378358;28;20335;-78
2022/04/30 18:36:24;;;;;;;8.60;6.75;;;;;;;;;;10337233;28;21666;-78
2022/04/30 18:41:24;;;;;;;7.95;7.13;;;;;;;;;;10403243;28;20050;-80
2022/04/30 18:46:25;;;;;;;8.88;7.28;;;;;;;;;;10383972;28;20045;-79
2022/04/30 18:51:25;;;;;;;9.10;7.23;;;;;;;;;;10369485;28;20038;-78
2022/04/30 19:01:45;;;;;;;8.30;7.50;;;;;;;;;;10342993;28;20070;-78
2022/04/30 19:06:45;;;;;;;9.55;8.23;;;;;;;;;;10353442;28;20045;-80
2022/04/30 19:11:45;;;;;;;9.00;7.40;;;;;;;;;;10352013;28;20061;-79
2022/04/30 19:16:48;;;;;;;9.88;8.88;;;;;;;;;;10368205;28;20074;-79
2022/04/30 19:21:50;;;;;;;10.23;9.23;;;;;;;;;;10367752;28;20109;-75
2022/04/30 19:26:51;;;;;;;9.25;8.15;;;;;;;;;;10381054;28;20037;-77
2022/04/30 19:31:52;;;;;;;11.57;10.07;;;;;;;;;;10367319;28;20046;-79
2022/04/30 19:36:53;;;;;;;9.30;8.35;;;;;;;;;;10344447;28;20315;-78
2022/04/30 19:41:53;;;;;;;10.70;8.40;;;;;;;;;;10371232;28;20564;-77
2022/04/30 19:46:56;;;;;;;8.83;7.93;;;;;;;;;;10359431;28;20065;-80
2022/04/30 19:51:58;;;;;;;10.60;9.25;;;;;;;;;;10385446;28;20433;-79
2022/04/30 19:57:01;;;;;;;9.15;7.53;;;;;;;;;;10352332;28;20077;-79
2022/04/30 20:02:01;;;;;;;9.35;8.45;;;;;;;;;;10362435;28;20080;-80
2022/04/30 20:07:01;;;;;;;8.93;8.00;;;;;;;;;;10362780;28;20038;-80
2022/04/30 20:17:23;;;;;;;11.63;10.43;;;;;;;;;;10387185;28;20304;-79
2022/04/30 20:22:23;;;;;;;9.13;8.23;;;;;;;;;;10391146;28;20061;-78
2022/04/30 20:27:28;;;;;;;10.05;8.98;;;;;;;;;;10373304;28;20269;-79
2022/04/30 20:37:49;;;;;;;11.23;9.02;;;;;;;;;;10381722;28;20054;-81
2022/04/30 20:42:49;;;;;;;10.65;9.65;;;;;;;;;;10387024;28;20042;-80
2022/04/30 20:47:50;;;;;;;10.93;9.77;;;;;;;;;;10360211;28;20130;-79
2022/04/30 20:52:50;;;;;;;11.05;9.95;;;;;;;;;;10365597;28;20564;-79
2022/04/30 20:57:52;;;;;;;11.75;10.15;;;;;;;;;;10359061;28;20386;-79
2022/04/30 21:02:52;;;;;;;12.18;10.00;;;;;;;;;;10375248;28;20069;-78
2022/04/30 21:07:53;;;;;;;12.23;10.57;;;;;;;;;;10370031;28;20102;-79
2022/04/30 21:12:54;;;;;;;12.48;10.45;;;;;;;;;;10372532;28;20041;-78
2022/04/30 21:17:54;;;;;;;16.57;12.10;;;;;;;;;;10380330;28;20054;-77
2022/04/30 21:22:55;;;;;;;11.38;9.63;;;;;;;;;;10391759;28;20289;-77
2022/04/30 21:27:55;;;;;;;11.13;9.93;;;;;;;;;;10384939;28;20045;-78
2022/04/30 21:32:56;;;;;;;12.30;10.98;;;;;;;;;;10381132;28;20038;-78
2022/04/30 21:37:56;;;;;;;13.25;11.15;;;;;;;;;;10370837;28;20073;-77
2022/04/30 21:42:57;;;;;;;12.83;11.53;;;;;;;;;;10367214;28;20203;-79
2022/04/30 21:47:57;;;;;;;13.18;10.90;;;;;;;;;;10348407;28;20281;-78
2022/04/30 21:52:58;;;;;;;12.10;10.55;;;;;;;;;;10349395;28;20431;-79
2022/04/30 22:03:19;;;;;;;12.88;11.52;;;;;;;;;;10377287;28;20273;-80
2022/04/30 22:08:21;;;;;;;13.77;11.80;;;;;;;;;;10371358;28;20080;-80
2022/04/30 22:13:23;;;;;;;;;;;;;;;;;;10373373;28;20509;-80
2022/04/30 22:18:24;;;;;;;13.93;11.68;;;;;;;;;;10373171;28;19933;-79
2022/04/30 22:23:24;;;;;;;15.82;14.27;;;;;;;;;;10373679;28;20049;-80
2022/04/30 22:28:25;;;;;;;13.82;12.32;;;;;;;;;;10355628;28;20121;-79
2022/04/30 22:33:26;;;;;;;14.48;12.82;;;;;;;;;;10371821;28;20058;-79
2022/04/30 22:38:27;;;;;;;14.57;12.85;;;;;;;;;;10371398;28;20046;-79
2022/04/30 22:43:27;;;;;;;15.47;13.07;;;;;;;;;;10358970;28;20045;-80
2022/04/30 22:48:29;;;;;;;14.50;12.80;;;;;;;;;;10378320;28;20133;-80
2022/04/30 22:53:32;;;;;;;14.40;12.90;;;;;;;;;;10373300;28;20277;-80
2022/04/30 22:58:32;;;;;;;14.93;13.33;;;;;;;;;;10391709;28;20749;-79
2022/04/30 23:03:34;;;;;;;16.17;12.40;;;;;;;;;;10347175;28;20187;-79
2022/04/30 23:08:34;;;;;;;14.55;11.63;;;;;;;;;;10338527;28;20273;-79
2022/04/30 23:13:34;;;;;;;16.27;13.00;;;;;;;;;;10381922;28;20046;-78
2022/04/30 23:18:36;;;;;;;16.08;12.45;;;;;;;;;;10343060;28;20297;-80
2022/04/30 23:23:36;;;;;;;15.88;12.98;;;;;;;;;;10362438;28;20042;-78
2022/04/30 23:28:37;;;;;;;14.73;12.63;;;;;;;;;;10364979;28;20048;-78
2022/04/30 23:33:38;;;;;;;14.68;13.15;;;;;;;;;;10359131;28;20049;-78
2022/04/30 23:38:38;;;;;;;14.87;13.37;;;;;;;;;;10341629;28;20057;-80
2022/04/30 23:43:38;;;;;;;14.13;12.63;;;;;;;;;;10365581;28;20552;-78
2022/04/30 23:48:39;;;;;;;18.23;14.57;;;;;;;;;;10355406;28;20057;-80
2022/04/30 23:53:39;;;;;;;15.33;13.23;;;;;;;;;;10356206;28;20052;-78
2022/04/30 23:58:39;;;;;;;15.15;13.43;;;;;;;;;;10390397;28;20292;-79
